createdAt,value
2023-05-05T00:06:40.297Z,99
2023-05-05T00:16:40.065Z,99
2023-05-05T00:26:39.962Z,99
2023-05-05T00:36:39.937Z,99
2023-05-05T00:46:39.803Z,99
2023-05-05T00:56:39.787Z,99
2023-05-05T01:06:39.630Z,99
2023-05-05T01:16:39.588Z,99
2023-05-05T01:26:39.599Z,99
2023-05-05T01:36:39.470Z,99
2023-05-05T01:46:39.410Z,99
2023-05-05T01:56:39.246Z,99
2023-05-05T02:06:39.290Z,99
2023-05-05T02:16:39.153Z,99
2023-05-05T02:26:39.138Z,99
2023-05-05T02:36:39.037Z,99
2023-05-05T02:46:39.070Z,99
2023-05-05T02:56:38.897Z,99
2023-05-05T03:06:38.924Z,99
2023-05-05T03:16:38.875Z,99
2023-05-05T03:26:38.633Z,99
2023-05-05T03:36:38.607Z,99
2023-05-05T03:46:38.472Z,99
2023-05-05T03:56:38.484Z,99
2023-05-05T04:06:38.327Z,1
2023-05-05T04:16:38.391Z,1
2023-05-05T04:26:38.194Z,1
2023-05-05T04:36:38.197Z,1
2023-05-05T04:46:38.270Z,1
2023-05-05T04:56:37.974Z,1
2023-05-05T05:06:37.907Z,1
2023-05-05T05:16:37.923Z,1
2023-05-05T05:26:37.836Z,1
2023-05-05T05:36:37.731Z,1
2023-05-05T05:46:37.955Z,1
2023-05-05T05:56:37.659Z,1
2023-05-05T06:06:37.556Z,1
2023-05-05T06:16:37.502Z,1
2023-05-05T06:26:37.351Z,1
2023-05-05T06:36:37.336Z,1
2023-05-05T06:46:37.289Z,1
2023-05-05T06:56:37.193Z,1
2023-05-05T07:06:37.243Z,1
2023-05-05T07:16:36.998Z,1
2023-05-05T07:26:37.048Z,1
2023-05-05T07:36:36.931Z,1
2023-05-05T07:46:36.875Z,99
2023-05-05T07:56:36.866Z,99
2023-05-05T08:06:36.652Z,99
2023-05-05T08:16:36.698Z,86
2023-05-05T08:26:36.588Z,91
2023-05-05T08:36:36.449Z,64
2023-05-05T08:46:36.500Z,97
2023-05-05T08:56:36.259Z,89
2023-05-05T09:06:36.326Z,77
2023-05-05T09:16:36.238Z,97
2023-05-05T09:26:36.119Z,99
2023-05-05T09:36:36.027Z,99
2023-05-05T09:46:35.960Z,87
2023-05-05T09:56:36.020Z,94
2023-05-05T10:06:35.782Z,84
2023-05-05T10:16:35.806Z,69
2023-05-05T10:26:35.713Z,69
2023-05-05T10:36:35.566Z,64
2023-05-05T10:46:35.772Z,75
2023-05-05T10:56:35.424Z,85
2023-05-05T11:06:35.640Z,73
2023-05-05T11:16:35.577Z,70
2023-05-05T11:26:35.547Z,69
2023-05-05T11:36:35.132Z,53
2023-05-05T11:46:35.077Z,61
2023-05-05T11:56:35.000Z,65
2023-05-05T12:06:34.938Z,61
2023-05-05T12:16:35.067Z,46
2023-05-05T12:26:34.833Z,51
2023-05-05T12:36:34.732Z,50
2023-05-05T12:46:34.744Z,61
2023-05-05T12:56:34.646Z,52
2023-05-05T13:06:34.565Z,58
2023-05-05T13:16:34.500Z,54
2023-05-05T13:26:34.341Z,60
2023-05-05T13:36:34.280Z,99
2023-05-05T13:46:34.256Z,99
2023-05-05T13:56:34.193Z,99
2023-05-05T14:06:34.242Z,99
2023-05-05T14:16:34.141Z,99
2023-05-05T14:26:33.938Z,99
2023-05-05T14:36:33.858Z,99
2023-05-05T14:46:33.796Z,99
2023-05-05T14:56:33.705Z,99
2023-05-05T15:06:33.800Z,99
2023-05-05T15:16:35.200Z,99
2023-05-05T15:26:33.591Z,99
2023-05-05T15:36:33.558Z,99
2023-05-05T15:46:33.520Z,99
2023-05-05T15:56:33.321Z,99
2023-05-05T16:06:33.217Z,99
2023-05-05T16:16:33.417Z,99
2023-05-05T16:26:33.121Z,99
2023-05-05T16:36:33.296Z,99
2023-05-05T16:46:32.989Z,99
2023-05-05T16:56:32.987Z,99
2023-05-05T17:06:33.076Z,99
2023-05-05T17:16:33.019Z,99
2023-05-05T17:26:32.760Z,99
2023-05-05T17:36:32.601Z,99
2023-05-05T17:46:32.587Z,99
2023-05-05T17:56:32.502Z,99
2023-05-05T18:06:32.453Z,99
2023-05-05T18:16:32.301Z,99
2023-05-05T18:26:32.355Z,99
2023-05-05T18:36:32.310Z,99
2023-05-05T18:46:32.491Z,99
2023-05-05T18:56:32.196Z,1
2023-05-05T19:06:31.987Z,1
2023-05-05T19:16:32.035Z,99
2023-05-05T19:26:31.833Z,99
2023-05-05T19:36:31.799Z,99
2023-05-05T19:46:31.766Z,99
2023-05-05T19:56:31.710Z,99
2023-05-05T20:06:31.623Z,99
2023-05-05T20:16:31.546Z,99
2023-05-05T20:26:31.602Z,99
2023-05-05T20:36:31.462Z,99
2023-05-05T20:46:31.390Z,99
2023-05-05T20:56:31.468Z,99
2023-05-05T21:06:31.101Z,99
2023-05-05T21:16:31.130Z,99
2023-05-05T21:26:30.975Z,75
2023-05-05T21:36:31.151Z,79
2023-05-05T21:46:30.983Z,71
2023-05-05T21:56:30.818Z,66
2023-05-05T22:06:30.786Z,80
2023-05-05T22:16:30.709Z,63
2023-05-05T22:26:30.589Z,67
2023-05-05T22:36:30.474Z,55
2023-05-05T22:46:30.568Z,60
2023-05-05T22:56:30.463Z,56
2023-05-05T23:06:30.310Z,48
2023-05-05T23:16:30.751Z,47
2023-05-05T23:26:30.348Z,46
2023-05-05T23:36:30.124Z,42
2023-05-05T23:46:30.094Z,38
2023-05-05T23:56:29.994Z,40
